sensor_id;sensor_type;location;lat;lon;timestamp;P1;durP1;ratioP1;P2;durP2;ratioP2
43449;SDS011;29041;42.266;23.110;2022-12-24T00:00:17;33.08;;;15.45;;
43449;SDS011;29041;42.266;23.110;2022-12-24T00:03:10;36.15;;;17.40;;
43449;SDS011;29041;42.266;23.110;2022-12-24T00:05:58;40.72;;;17.83;;
43449;SDS011;29041;42.266;23.110;2022-12-24T00:08:54;46.03;;;17.90;;
43449;SDS011;29041;42.266;23.110;2022-12-24T00:11:54;43.80;;;18.02;;
43449;SDS011;29041;42.266;23.110;2022-12-24T00:14:47;34.20;;;14.88;;
43449;SDS011;29041;42.266;23.110;2022-12-24T00:17:35;35.75;;;16.60;;
43449;SDS011;29041;42.266;23.110;2022-12-24T00:20:22;35.20;;;16.58;;
43449;SDS011;29041;42.266;23.110;2022-12-24T00:23:10;27.90;;;14.32;;
43449;SDS011;29041;42.266;23.110;2022-12-24T00:25:57;35.85;;;15.02;;
43449;SDS011;29041;42.266;23.110;2022-12-24T00:28:44;32.03;;;14.45;;
43449;SDS011;29041;42.266;23.110;2022-12-24T00:31:33;30.30;;;16.55;;
43449;SDS011;29041;42.266;23.110;2022-12-24T00:34:21;26.27;;;12.85;;
43449;SDS011;29041;42.266;23.110;2022-12-24T00:37:08;32.40;;;14.13;;
43449;SDS011;29041;42.266;23.110;2022-12-24T00:39:55;30.10;;;15.07;;
43449;SDS011;29041;42.266;23.110;2022-12-24T00:46:10;28.95;;;13.80;;
43449;SDS011;29041;42.266;23.110;2022-12-24T00:49:00;24.52;;;11.55;;
43449;SDS011;29041;42.266;23.110;2022-12-24T00:51:48;24.85;;;11.80;;
43449;SDS011;29041;42.266;23.110;2022-12-24T00:54:36;29.05;;;12.65;;
43449;SDS011;29041;42.266;23.110;2022-12-24T00:57:23;28.52;;;12.98;;
43449;SDS011;29041;42.266;23.110;2022-12-24T01:00:10;38.22;;;14.57;;
43449;SDS011;29041;42.266;23.110;2022-12-24T01:02:58;42.75;;;15.82;;
43449;SDS011;29041;42.266;23.110;2022-12-24T01:05:46;25.45;;;13.85;;
43449;SDS011;29041;42.266;23.110;2022-12-24T01:08:34;47.65;;;13.40;;
43449;SDS011;29041;42.266;23.110;2022-12-24T01:11:22;30.00;;;13.98;;
43449;SDS011;29041;42.266;23.110;2022-12-24T01:14:09;28.10;;;15.02;;
43449;SDS011;29041;42.266;23.110;2022-12-24T01:16:56;33.55;;;14.32;;
43449;SDS011;29041;42.266;23.110;2022-12-24T01:19:44;32.60;;;14.80;;
43449;SDS011;29041;42.266;23.110;2022-12-24T01:22:33;30.05;;;15.80;;
43449;SDS011;29041;42.266;23.110;2022-12-24T01:25:24;36.70;;;16.52;;
43449;SDS011;29041;42.266;23.110;2022-12-24T01:28:11;43.35;;;18.08;;
43449;SDS011;29041;42.266;23.110;2022-12-24T01:33:42;31.38;;;15.70;;
43449;SDS011;29041;42.266;23.110;2022-12-24T01:36:31;34.83;;;15.57;;
43449;SDS011;29041;42.266;23.110;2022-12-24T01:39:21;32.20;;;14.63;;
43449;SDS011;29041;42.266;23.110;2022-12-24T01:42:14;37.03;;;15.98;;
43449;SDS011;29041;42.266;23.110;2022-12-24T01:45:41;29.67;;;14.35;;
43449;SDS011;29041;42.266;23.110;2022-12-24T01:48:35;36.50;;;16.80;;
43449;SDS011;29041;42.266;23.110;2022-12-24T01:51:26;32.65;;;14.80;;
43449;SDS011;29041;42.266;23.110;2022-12-24T01:54:22;31.27;;;14.35;;
43449;SDS011;29041;42.266;23.110;2022-12-24T01:57:18;30.45;;;14.13;;
43449;SDS011;29041;42.266;23.110;2022-12-24T02:00:09;42.60;;;15.80;;
43449;SDS011;29041;42.266;23.110;2022-12-24T02:03:00;38.50;;;17.58;;
43449;SDS011;29041;42.266;23.110;2022-12-24T02:05:57;40.72;;;18.73;;
43449;SDS011;29041;42.266;23.110;2022-12-24T02:08:47;36.60;;;16.60;;
43449;SDS011;29041;42.266;23.110;2022-12-24T02:11:42;40.80;;;15.52;;
43449;SDS011;29041;42.266;23.110;2022-12-24T02:14:31;43.25;;;18.38;;
43449;SDS011;29041;42.266;23.110;2022-12-24T02:17:25;33.30;;;15.98;;
43449;SDS011;29041;42.266;23.110;2022-12-24T02:27:38;40.17;;;17.25;;
43449;SDS011;29041;42.266;23.110;2022-12-24T02:30:40;34.60;;;16.02;;
43449;SDS011;29041;42.266;23.110;2022-12-24T02:33:34;41.38;;;16.60;;
43449;SDS011;29041;42.266;23.110;2022-12-24T02:36:27;38.20;;;17.23;;
43449;SDS011;29041;42.266;23.110;2022-12-24T02:42:10;29.45;;;12.80;;
43449;SDS011;29041;42.266;23.110;2022-12-24T02:45:08;34.42;;;14.65;;
43449;SDS011;29041;42.266;23.110;2022-12-24T02:48:05;25.05;;;13.50;;
43449;SDS011;29041;42.266;23.110;2022-12-24T02:51:00;29.40;;;16.00;;
43449;SDS011;29041;42.266;23.110;2022-12-24T02:53:50;27.85;;;13.30;;
43449;SDS011;29041;42.266;23.110;2022-12-24T02:56:43;27.90;;;12.82;;
43449;SDS011;29041;42.266;23.110;2022-12-24T02:59:45;29.08;;;11.85;;
43449;SDS011;29041;42.266;23.110;2022-12-24T03:02:50;29.55;;;12.32;;
43449;SDS011;29041;42.266;23.110;2022-12-24T03:05:56;20.10;;;10.18;;
43449;SDS011;29041;42.266;23.110;2022-12-24T03:08:59;22.13;;;10.77;;
43449;SDS011;29041;42.266;23.110;2022-12-24T03:12:09;19.55;;;9.68;;
43449;SDS011;29041;42.266;23.110;2022-12-24T03:15:04;23.98;;;9.25;;
43449;SDS011;29041;42.266;23.110;2022-12-24T03:17:55;17.67;;;8.80;;
43449;SDS011;29041;42.266;23.110;2022-12-24T03:20:57;23.60;;;9.80;;
43449;SDS011;29041;42.266;23.110;2022-12-24T03:23:51;20.58;;;10.52;;
43449;SDS011;29041;42.266;23.110;2022-12-24T03:26:38;23.55;;;10.55;;
43449;SDS011;29041;42.266;23.110;2022-12-24T03:29:27;24.17;;;10.90;;
43449;SDS011;29041;42.266;23.110;2022-12-24T03:32:14;22.92;;;11.10;;
43449;SDS011;29041;42.266;23.110;2022-12-24T03:35:10;21.75;;;11.00;;
43449;SDS011;29041;42.266;23.110;2022-12-24T03:37:59;23.73;;;10.43;;
43449;SDS011;29041;42.266;23.110;2022-12-24T03:40:46;27.92;;;13.93;;
43449;SDS011;29041;42.266;23.110;2022-12-24T03:43:34;27.02;;;12.40;;
43449;SDS011;29041;42.266;23.110;2022-12-24T03:46:21;22.95;;;11.63;;
43449;SDS011;29041;42.266;23.110;2022-12-24T03:49:10;23.92;;;11.52;;
43449;SDS011;29041;42.266;23.110;2022-12-24T03:52:22;21.50;;;11.20;;
43449;SDS011;29041;42.266;23.110;2022-12-24T03:55:26;24.67;;;10.88;;
43449;SDS011;29041;42.266;23.110;2022-12-24T04:06:09;19.90;;;10.27;;
43449;SDS011;29041;42.266;23.110;2022-12-24T04:09:03;24.77;;;10.85;;
43449;SDS011;29041;42.266;23.110;2022-12-24T04:11:54;23.38;;;10.15;;
43449;SDS011;29041;42.266;23.110;2022-12-24T04:14:43;18.65;;;11.13;;
43449;SDS011;29041;42.266;23.110;2022-12-24T04:17:31;21.50;;;10.77;;
43449;SDS011;29041;42.266;23.110;2022-12-24T04:20:20;26.08;;;12.75;;
43449;SDS011;29041;42.266;23.110;2022-12-24T04:23:12;22.27;;;12.65;;
43449;SDS011;29041;42.266;23.110;2022-12-24T04:26:01;32.45;;;12.73;;
43449;SDS011;29041;42.266;23.110;2022-12-24T04:28:52;36.38;;;13.02;;
43449;SDS011;29041;42.266;23.110;2022-12-24T04:31:39;35.70;;;15.10;;
43449;SDS011;29041;42.266;23.110;2022-12-24T04:34:27;40.28;;;15.57;;
43449;SDS011;29041;42.266;23.110;2022-12-24T04:37:14;49.97;;;17.67;;
43449;SDS011;29041;42.266;23.110;2022-12-24T04:40:01;42.60;;;15.88;;
43449;SDS011;29041;42.266;23.110;2022-12-24T04:42:49;39.35;;;15.57;;
43449;SDS011;29041;42.266;23.110;2022-12-24T04:45:38;27.67;;;13.18;;
43449;SDS011;29041;42.266;23.110;2022-12-24T04:48:26;44.15;;;17.00;;
43449;SDS011;29041;42.266;23.110;2022-12-24T04:51:14;39.42;;;16.10;;
43449;SDS011;29041;42.266;23.110;2022-12-24T04:54:02;37.17;;;14.98;;
43449;SDS011;29041;42.266;23.110;2022-12-24T04:56:50;26.95;;;12.93;;
43449;SDS011;29041;42.266;23.110;2022-12-24T04:59:37;25.10;;;11.98;;
43449;SDS011;29041;42.266;23.110;2022-12-24T05:02:26;24.70;;;11.93;;
43449;SDS011;29041;42.266;23.110;2022-12-24T05:05:13;30.67;;;16.65;;
43449;SDS011;29041;42.266;23.110;2022-12-24T05:08:00;29.23;;;14.45;;
43449;SDS011;29041;42.266;23.110;2022-12-24T05:10:53;27.92;;;13.63;;
43449;SDS011;29041;42.266;23.110;2022-12-24T05:13:42;32.33;;;15.40;;
43449;SDS011;29041;42.266;23.110;2022-12-24T05:16:29;40.90;;;17.55;;
43449;SDS011;29041;42.266;23.110;2022-12-24T05:19:18;43.55;;;19.65;;
43449;SDS011;29041;42.266;23.110;2022-12-24T05:22:05;27.50;;;11.73;;
43449;SDS011;29041;42.266;23.110;2022-12-24T05:25:10;33.22;;;15.20;;
43449;SDS011;29041;42.266;23.110;2022-12-24T05:28:14;31.40;;;13.48;;
43449;SDS011;29041;42.266;23.110;2022-12-24T05:31:04;25.23;;;12.40;;
43449;SDS011;29041;42.266;23.110;2022-12-24T05:36:42;44.05;;;18.83;;
43449;SDS011;29041;42.266;23.110;2022-12-24T05:39:30;86.93;;;33.58;;
43449;SDS011;29041;42.266;23.110;2022-12-24T05:42:30;53.97;;;21.77;;
43449;SDS011;29041;42.266;23.110;2022-12-24T05:45:18;28.63;;;14.30;;
43449;SDS011;29041;42.266;23.110;2022-12-24T05:48:08;30.65;;;13.88;;
43449;SDS011;29041;42.266;23.110;2022-12-24T05:50:56;32.42;;;12.77;;
43449;SDS011;29041;42.266;23.110;2022-12-24T05:53:45;44.75;;;14.38;;
43449;SDS011;29041;42.266;23.110;2022-12-24T05:56:36;27.10;;;13.73;;
43449;SDS011;29041;42.266;23.110;2022-12-24T05:59:25;40.03;;;15.65;;
43449;SDS011;29041;42.266;23.110;2022-12-24T06:02:16;32.67;;;14.57;;
43449;SDS011;29041;42.266;23.110;2022-12-24T06:05:04;33.47;;;14.05;;
43449;SDS011;29041;42.266;23.110;2022-12-24T06:07:51;31.80;;;12.43;;
43449;SDS011;29041;42.266;23.110;2022-12-24T06:10:41;23.30;;;11.40;;
43449;SDS011;29041;42.266;23.110;2022-12-24T06:13:29;29.38;;;11.50;;
43449;SDS011;29041;42.266;23.110;2022-12-24T06:16:20;29.42;;;12.52;;
43449;SDS011;29041;42.266;23.110;2022-12-24T06:19:11;28.30;;;14.45;;
43449;SDS011;29041;42.266;23.110;2022-12-24T06:22:00;28.08;;;14.15;;
43449;SDS011;29041;42.266;23.110;2022-12-24T06:24:52;38.58;;;14.63;;
43449;SDS011;29041;42.266;23.110;2022-12-24T06:30:47;25.40;;;11.85;;
43449;SDS011;29041;42.266;23.110;2022-12-24T06:33:38;45.60;;;17.23;;
43449;SDS011;29041;42.266;23.110;2022-12-24T06:36:26;38.53;;;18.33;;
43449;SDS011;29041;42.266;23.110;2022-12-24T06:39:13;33.13;;;17.73;;
43449;SDS011;29041;42.266;23.110;2022-12-24T06:42:00;38.47;;;15.95;;
43449;SDS011;29041;42.266;23.110;2022-12-24T06:44:49;37.90;;;18.02;;
43449;SDS011;29041;42.266;23.110;2022-12-24T06:47:36;31.23;;;16.27;;
43449;SDS011;29041;42.266;23.110;2022-12-24T06:50:23;39.22;;;20.77;;
43449;SDS011;29041;42.266;23.110;2022-12-24T06:53:11;38.25;;;17.00;;
43449;SDS011;29041;42.266;23.110;2022-12-24T06:56:01;40.28;;;17.95;;
43449;SDS011;29041;42.266;23.110;2022-12-24T06:58:49;40.00;;;16.20;;
43449;SDS011;29041;42.266;23.110;2022-12-24T07:01:55;43.55;;;20.02;;
43449;SDS011;29041;42.266;23.110;2022-12-24T07:04:43;45.90;;;22.17;;
43449;SDS011;29041;42.266;23.110;2022-12-24T07:07:32;49.05;;;22.38;;
43449;SDS011;29041;42.266;23.110;2022-12-24T07:10:22;37.05;;;17.65;;
43449;SDS011;29041;42.266;23.110;2022-12-24T07:13:10;27.88;;;15.45;;
43449;SDS011;29041;42.266;23.110;2022-12-24T07:15:57;32.83;;;15.98;;
43449;SDS011;29041;42.266;23.110;2022-12-24T07:18:47;39.08;;;21.17;;
43449;SDS011;29041;42.266;23.110;2022-12-24T07:21:35;37.50;;;19.08;;
43449;SDS011;29041;42.266;23.110;2022-12-24T07:24:22;40.47;;;19.45;;
43449;SDS011;29041;42.266;23.110;2022-12-24T07:27:09;31.77;;;19.25;;
43449;SDS011;29041;42.266;23.110;2022-12-24T07:29:56;29.65;;;15.85;;
43449;SDS011;29041;42.266;23.110;2022-12-24T07:32:46;37.42;;;18.15;;
43449;SDS011;29041;42.266;23.110;2022-12-24T07:35:35;33.75;;;18.35;;
43449;SDS011;29041;42.266;23.110;2022-12-24T07:38:22;37.10;;;19.15;;
43449;SDS011;29041;42.266;23.110;2022-12-24T07:41:10;37.50;;;18.80;;
43449;SDS011;29041;42.266;23.110;2022-12-24T07:43:58;42.15;;;21.23;;
43449;SDS011;29041;42.266;23.110;2022-12-24T07:46:52;47.25;;;19.83;;
43449;SDS011;29041;42.266;23.110;2022-12-24T07:49:39;31.92;;;17.70;;
43449;SDS011;29041;42.266;23.110;2022-12-24T07:52:28;26.42;;;15.73;;
43449;SDS011;29041;42.266;23.110;2022-12-24T07:55:18;33.35;;;17.98;;
43449;SDS011;29041;42.266;23.110;2022-12-24T07:58:06;39.88;;;20.60;;
43449;SDS011;29041;42.266;23.110;2022-12-24T08:00:56;34.97;;;18.30;;
43449;SDS011;29041;42.266;23.110;2022-12-24T08:03:44;37.08;;;19.98;;
43449;SDS011;29041;42.266;23.110;2022-12-24T08:06:31;39.13;;;20.13;;
43449;SDS011;29041;42.266;23.110;2022-12-24T08:09:22;43.72;;;22.35;;
43449;SDS011;29041;42.266;23.110;2022-12-24T08:12:09;33.58;;;16.95;;
43449;SDS011;29041;42.266;23.110;2022-12-24T08:14:56;36.47;;;17.73;;
43449;SDS011;29041;42.266;23.110;2022-12-24T08:17:44;36.00;;;16.38;;
43449;SDS011;29041;42.266;23.110;2022-12-24T08:20:31;31.55;;;15.57;;
43449;SDS011;29041;42.266;23.110;2022-12-24T08:23:18;36.80;;;17.38;;
43449;SDS011;29041;42.266;23.110;2022-12-24T08:26:09;29.98;;;14.35;;
43449;SDS011;29041;42.266;23.110;2022-12-24T08:28:57;28.35;;;13.60;;
43449;SDS011;29041;42.266;23.110;2022-12-24T08:31:44;32.05;;;15.05;;
43449;SDS011;29041;42.266;23.110;2022-12-24T08:34:34;33.97;;;15.77;;
43449;SDS011;29041;42.266;23.110;2022-12-24T08:37:24;32.47;;;16.77;;
43449;SDS011;29041;42.266;23.110;2022-12-24T08:40:12;36.78;;;15.35;;
43449;SDS011;29041;42.266;23.110;2022-12-24T08:43:01;26.80;;;15.55;;
43449;SDS011;29041;42.266;23.110;2022-12-24T08:45:49;42.38;;;16.65;;
43449;SDS011;29041;42.266;23.110;2022-12-24T08:48:36;34.95;;;15.77;;
43449;SDS011;29041;42.266;23.110;2022-12-24T08:51:25;42.38;;;17.67;;
43449;SDS011;29041;42.266;23.110;2022-12-24T08:54:12;45.33;;;21.13;;
43449;SDS011;29041;42.266;23.110;2022-12-24T08:57:00;45.75;;;19.73;;
43449;SDS011;29041;42.266;23.110;2022-12-24T08:59:49;54.65;;;24.52;;
43449;SDS011;29041;42.266;23.110;2022-12-24T09:02:39;52.42;;;21.63;;
43449;SDS011;29041;42.266;23.110;2022-12-24T09:05:26;37.40;;;18.30;;
43449;SDS011;29041;42.266;23.110;2022-12-24T09:08:13;35.70;;;17.35;;
43449;SDS011;29041;42.266;23.110;2022-12-24T09:11:01;34.97;;;16.83;;
43449;SDS011;29041;42.266;23.110;2022-12-24T09:13:50;40.45;;;20.63;;
43449;SDS011;29041;42.266;23.110;2022-12-24T09:16:39;38.40;;;19.38;;
43449;SDS011;29041;42.266;23.110;2022-12-24T09:19:26;52.42;;;24.33;;
43449;SDS011;29041;42.266;23.110;2022-12-24T09:22:13;49.28;;;24.17;;
43449;SDS011;29041;42.266;23.110;2022-12-24T09:25:01;38.83;;;22.05;;
43449;SDS011;29041;42.266;23.110;2022-12-24T09:27:49;59.90;;;28.52;;
43449;SDS011;29041;42.266;23.110;2022-12-24T09:30:36;42.70;;;22.42;;
43449;SDS011;29041;42.266;23.110;2022-12-24T09:33:25;46.50;;;22.13;;
43449;SDS011;29041;42.266;23.110;2022-12-24T09:36:13;53.45;;;23.52;;
43449;SDS011;29041;42.266;23.110;2022-12-24T09:39:00;53.25;;;25.85;;
43449;SDS011;29041;42.266;23.110;2022-12-24T09:41:50;48.53;;;24.42;;
43449;SDS011;29041;42.266;23.110;2022-12-24T09:44:45;49.33;;;25.88;;
43449;SDS011;29041;42.266;23.110;2022-12-24T09:47:38;53.88;;;25.38;;
43449;SDS011;29041;42.266;23.110;2022-12-24T09:50:31;52.53;;;25.60;;
43449;SDS011;29041;42.266;23.110;2022-12-24T09:53:25;55.40;;;28.30;;
43449;SDS011;29041;42.266;23.110;2022-12-24T09:56:16;47.88;;;24.60;;
43449;SDS011;29041;42.266;23.110;2022-12-24T09:59:09;47.42;;;22.27;;
43449;SDS011;29041;42.266;23.110;2022-12-24T10:04:47;54.88;;;27.52;;
43449;SDS011;29041;42.266;23.110;2022-12-24T10:07:37;55.72;;;25.05;;
43449;SDS011;29041;42.266;23.110;2022-12-24T10:10:39;79.03;;;39.88;;
43449;SDS011;29041;42.266;23.110;2022-12-24T10:13:36;44.38;;;21.98;;
43449;SDS011;29041;42.266;23.110;2022-12-24T10:16:31;45.13;;;25.23;;
43449;SDS011;29041;42.266;23.110;2022-12-24T10:19:31;41.97;;;23.65;;
43449;SDS011;29041;42.266;23.110;2022-12-24T10:22:26;45.70;;;22.50;;
43449;SDS011;29041;42.266;23.110;2022-12-24T10:25:21;52.33;;;23.60;;
43449;SDS011;29041;42.266;23.110;2022-12-24T10:28:14;52.97;;;24.17;;
43449;SDS011;29041;42.266;23.110;2022-12-24T10:31:04;48.88;;;26.10;;
43449;SDS011;29041;42.266;23.110;2022-12-24T10:34:01;44.00;;;23.40;;
43449;SDS011;29041;42.266;23.110;2022-12-24T10:36:55;36.05;;;20.13;;
43449;SDS011;29041;42.266;23.110;2022-12-24T10:39:48;36.15;;;18.88;;
43449;SDS011;29041;42.266;23.110;2022-12-24T10:42:38;43.25;;;21.73;;
43449;SDS011;29041;42.266;23.110;2022-12-24T10:45:29;32.30;;;18.00;;
43449;SDS011;29041;42.266;23.110;2022-12-24T10:48:23;31.38;;;16.65;;
43449;SDS011;29041;42.266;23.110;2022-12-24T10:51:18;30.25;;;16.40;;
43449;SDS011;29041;42.266;23.110;2022-12-24T10:54:10;30.83;;;15.32;;
43449;SDS011;29041;42.266;23.110;2022-12-24T10:57:00;22.58;;;12.65;;
43449;SDS011;29041;42.266;23.110;2022-12-24T10:59:50;35.85;;;15.90;;
43449;SDS011;29041;42.266;23.110;2022-12-24T11:02:39;30.88;;;16.00;;
43449;SDS011;29041;42.266;23.110;2022-12-24T11:05:27;20.48;;;11.55;;
43449;SDS011;29041;42.266;23.110;2022-12-24T11:08:18;21.50;;;12.32;;
43449;SDS011;29041;42.266;23.110;2022-12-24T11:11:06;22.55;;;11.02;;
43449;SDS011;29041;42.266;23.110;2022-12-24T11:13:55;19.15;;;9.73;;
43449;SDS011;29041;42.266;23.110;2022-12-24T11:16:48;20.77;;;10.45;;
43449;SDS011;29041;42.266;23.110;2022-12-24T11:19:38;19.75;;;10.27;;
43449;SDS011;29041;42.266;23.110;2022-12-24T11:22:29;21.83;;;12.32;;
43449;SDS011;29041;42.266;23.110;2022-12-24T11:25:18;19.92;;;10.18;;
43449;SDS011;29041;42.266;23.110;2022-12-24T11:28:12;26.88;;;14.43;;
43449;SDS011;29041;42.266;23.110;2022-12-24T11:31:07;23.83;;;11.77;;
43449;SDS011;29041;42.266;23.110;2022-12-24T11:37:13;36.88;;;21.10;;
43449;SDS011;29041;42.266;23.110;2022-12-24T11:40:04;32.40;;;15.85;;
43449;SDS011;29041;42.266;23.110;2022-12-24T11:43:11;80.15;;;34.60;;
43449;SDS011;29041;42.266;23.110;2022-12-24T11:46:01;51.75;;;25.55;;
43449;SDS011;29041;42.266;23.110;2022-12-24T11:49:10;22.33;;;12.63;;
43449;SDS011;29041;42.266;23.110;2022-12-24T11:52:10;48.58;;;23.40;;
43449;SDS011;29041;42.266;23.110;2022-12-24T11:55:13;37.50;;;19.83;;
43449;SDS011;29041;42.266;23.110;2022-12-24T11:58:12;69.35;;;30.67;;
43449;SDS011;29041;42.266;23.110;2022-12-24T12:01:09;21.67;;;11.20;;
43449;SDS011;29041;42.266;23.110;2022-12-24T12:04:03;26.42;;;14.77;;
43449;SDS011;29041;42.266;23.110;2022-12-24T12:07:01;23.92;;;12.68;;
43449;SDS011;29041;42.266;23.110;2022-12-24T12:09:54;28.63;;;12.73;;
43449;SDS011;29041;42.266;23.110;2022-12-24T12:12:45;30.98;;;17.83;;
43449;SDS011;29041;42.266;23.110;2022-12-24T12:15:43;29.02;;;15.02;;
43449;SDS011;29041;42.266;23.110;2022-12-24T12:18:36;27.17;;;13.07;;
43449;SDS011;29041;42.266;23.110;2022-12-24T12:21:27;23.98;;;13.07;;
43449;SDS011;29041;42.266;23.110;2022-12-24T12:24:21;29.58;;;11.25;;
43449;SDS011;29041;42.266;23.110;2022-12-24T12:27:16;34.22;;;14.82;;
43449;SDS011;29041;42.266;23.110;2022-12-24T12:30:09;28.45;;;14.20;;
43449;SDS011;29041;42.266;23.110;2022-12-24T12:33:03;33.65;;;15.35;;
43449;SDS011;29041;42.266;23.110;2022-12-24T12:36:02;30.17;;;13.95;;
43449;SDS011;29041;42.266;23.110;2022-12-24T12:38:53;29.65;;;13.50;;
43449;SDS011;29041;42.266;23.110;2022-12-24T12:41:46;40.67;;;18.17;;
43449;SDS011;29041;42.266;23.110;2022-12-24T12:44:47;28.90;;;13.45;;
43449;SDS011;29041;42.266;23.110;2022-12-24T12:47:43;23.90;;;10.93;;
43449;SDS011;29041;42.266;23.110;2022-12-24T12:50:43;27.90;;;12.43;;
43449;SDS011;29041;42.266;23.110;2022-12-24T12:53:38;23.52;;;11.20;;
43449;SDS011;29041;42.266;23.110;2022-12-24T12:56:36;29.50;;;15.85;;
43449;SDS011;29041;42.266;23.110;2022-12-24T12:59:28;31.38;;;16.80;;
43449;SDS011;29041;42.266;23.110;2022-12-24T13:02:28;41.83;;;20.88;;
43449;SDS011;29041;42.266;23.110;2022-12-24T13:08:51;41.22;;;20.15;;
43449;SDS011;29041;42.266;23.110;2022-12-24T13:12:01;35.45;;;18.50;;
43449;SDS011;29041;42.266;23.110;2022-12-24T13:15:42;25.23;;;13.32;;
43449;SDS011;29041;42.266;23.110;2022-12-24T13:18:54;26.05;;;12.45;;
43449;SDS011;29041;42.266;23.110;2022-12-24T13:21:47;37.00;;;15.48;;
43449;SDS011;29041;42.266;23.110;2022-12-24T13:24:35;62.35;;;30.60;;
43449;SDS011;29041;42.266;23.110;2022-12-24T13:27:24;33.05;;;18.73;;
43449;SDS011;29041;42.266;23.110;2022-12-24T13:40:02;26.80;;;13.88;;
43449;SDS011;29041;42.266;23.110;2022-12-24T13:43:07;34.60;;;18.67;;
43449;SDS011;29041;42.266;23.110;2022-12-24T13:45:58;54.38;;;22.42;;
43449;SDS011;29041;42.266;23.110;2022-12-24T13:48:45;28.52;;;13.77;;
43449;SDS011;29041;42.266;23.110;2022-12-24T13:51:32;29.25;;;15.55;;
43449;SDS011;29041;42.266;23.110;2022-12-24T13:54:21;37.25;;;13.77;;
43449;SDS011;29041;42.266;23.110;2022-12-24T13:57:23;20.25;;;6.97;;
43449;SDS011;29041;42.266;23.110;2022-12-24T14:00:26;14.52;;;8.48;;
43449;SDS011;29041;42.266;23.110;2022-12-24T14:06:30;14.60;;;7.00;;
43449;SDS011;29041;42.266;23.110;2022-12-24T14:09:19;10.07;;;6.22;;
43449;SDS011;29041;42.266;23.110;2022-12-24T14:12:29;8.75;;;5.13;;
43449;SDS011;29041;42.266;23.110;2022-12-24T14:18:47;13.23;;;6.55;;
43449;SDS011;29041;42.266;23.110;2022-12-24T14:21:46;26.00;;;10.73;;
43449;SDS011;29041;42.266;23.110;2022-12-24T14:24:49;20.27;;;12.23;;
43449;SDS011;29041;42.266;23.110;2022-12-24T14:27:42;47.42;;;31.73;;
43449;SDS011;29041;42.266;23.110;2022-12-24T14:30:31;14.40;;;11.63;;
43449;SDS011;29041;42.266;23.110;2022-12-24T14:33:34;25.90;;;13.52;;
43449;SDS011;29041;42.266;23.110;2022-12-24T14:36:23;12.75;;;8.52;;
43449;SDS011;29041;42.266;23.110;2022-12-24T14:39:15;39.75;;;22.05;;
43449;SDS011;29041;42.266;23.110;2022-12-24T14:42:11;20.52;;;11.48;;
43449;SDS011;29041;42.266;23.110;2022-12-24T14:45:12;47.78;;;21.05;;
43449;SDS011;29041;42.266;23.110;2022-12-24T14:48:10;42.47;;;21.13;;
43449;SDS011;29041;42.266;23.110;2022-12-24T14:51:05;20.80;;;10.50;;
43449;SDS011;29041;42.266;23.110;2022-12-24T14:57:22;15.77;;;9.02;;
43449;SDS011;29041;42.266;23.110;2022-12-24T15:00:16;34.22;;;17.13;;
43449;SDS011;29041;42.266;23.110;2022-12-24T15:03:07;16.90;;;8.88;;
43449;SDS011;29041;42.266;23.110;2022-12-24T15:05:59;11.57;;;7.53;;
43449;SDS011;29041;42.266;23.110;2022-12-24T15:08:50;13.90;;;8.13;;
43449;SDS011;29041;42.266;23.110;2022-12-24T15:11:38;29.73;;;18.65;;
43449;SDS011;29041;42.266;23.110;2022-12-24T15:14:33;41.53;;;19.05;;
43449;SDS011;29041;42.266;23.110;2022-12-24T15:17:27;50.95;;;22.40;;
43449;SDS011;29041;42.266;23.110;2022-12-24T15:20:16;30.73;;;18.92;;
43449;SDS011;29041;42.266;23.110;2022-12-24T15:23:15;36.65;;;17.20;;
43449;SDS011;29041;42.266;23.110;2022-12-24T15:26:05;36.85;;;18.88;;
43449;SDS011;29041;42.266;23.110;2022-12-24T15:28:54;49.47;;;21.58;;
43449;SDS011;29041;42.266;23.110;2022-12-24T15:31:45;36.38;;;18.45;;
43449;SDS011;29041;42.266;23.110;2022-12-24T15:34:38;33.97;;;19.05;;
43449;SDS011;29041;42.266;23.110;2022-12-24T15:37:27;46.08;;;20.75;;
43449;SDS011;29041;42.266;23.110;2022-12-24T15:40:18;40.95;;;19.75;;
43449;SDS011;29041;42.266;23.110;2022-12-24T15:43:07;42.70;;;20.25;;
43449;SDS011;29041;42.266;23.110;2022-12-24T15:45:54;77.97;;;40.50;;
43449;SDS011;29041;42.266;23.110;2022-12-24T15:48:43;302.98;;;129.10;;
43449;SDS011;29041;42.266;23.110;2022-12-24T15:51:32;131.57;;;62.22;;
43449;SDS011;29041;42.266;23.110;2022-12-24T15:54:22;139.00;;;64.00;;
43449;SDS011;29041;42.266;23.110;2022-12-24T15:57:13;97.93;;;44.85;;
43449;SDS011;29041;42.266;23.110;2022-12-24T16:00:18;82.03;;;40.58;;
43449;SDS011;29041;42.266;23.110;2022-12-24T16:03:10;91.75;;;42.28;;
43449;SDS011;29041;42.266;23.110;2022-12-24T16:06:05;93.03;;;47.10;;
43449;SDS011;29041;42.266;23.110;2022-12-24T16:08:53;157.23;;;78.00;;
43449;SDS011;29041;42.266;23.110;2022-12-24T16:11:43;118.45;;;53.88;;
43449;SDS011;29041;42.266;23.110;2022-12-24T16:14:30;163.95;;;72.95;;
43449;SDS011;29041;42.266;23.110;2022-12-24T16:17:19;177.95;;;82.10;;
43449;SDS011;29041;42.266;23.110;2022-12-24T16:20:15;67.40;;;35.20;;
43449;SDS011;29041;42.266;23.110;2022-12-24T16:23:14;26.50;;;15.25;;
43449;SDS011;29041;42.266;23.110;2022-12-24T16:26:05;22.55;;;11.45;;
43449;SDS011;29041;42.266;23.110;2022-12-24T16:28:53;45.75;;;28.23;;
43449;SDS011;29041;42.266;23.110;2022-12-24T16:31:42;10.77;;;7.03;;
43449;SDS011;29041;42.266;23.110;2022-12-24T16:34:32;17.45;;;9.68;;
43449;SDS011;29041;42.266;23.110;2022-12-24T16:37:19;20.63;;;9.60;;
43449;SDS011;29041;42.266;23.110;2022-12-24T16:40:11;11.02;;;6.50;;
43449;SDS011;29041;42.266;23.110;2022-12-24T16:42:59;19.13;;;11.52;;
43449;SDS011;29041;42.266;23.110;2022-12-24T16:46:04;21.15;;;12.13;;
43449;SDS011;29041;42.266;23.110;2022-12-24T16:48:52;21.08;;;10.77;;
43449;SDS011;29041;42.266;23.110;2022-12-24T16:51:40;53.55;;;23.33;;
43449;SDS011;29041;42.266;23.110;2022-12-24T16:54:27;64.78;;;26.77;;
43449;SDS011;29041;42.266;23.110;2022-12-24T16:57:15;39.50;;;17.17;;
43449;SDS011;29041;42.266;23.110;2022-12-24T17:00:05;50.33;;;26.95;;
43449;SDS011;29041;42.266;23.110;2022-12-24T17:02:53;48.38;;;21.27;;
43449;SDS011;29041;42.266;23.110;2022-12-24T17:05:41;98.60;;;38.72;;
43449;SDS011;29041;42.266;23.110;2022-12-24T17:08:29;37.65;;;21.15;;
43449;SDS011;29041;42.266;23.110;2022-12-24T17:11:16;44.55;;;21.83;;
43449;SDS011;29041;42.266;23.110;2022-12-24T17:14:10;43.83;;;25.52;;
43449;SDS011;29041;42.266;23.110;2022-12-24T17:16:57;25.90;;;14.15;;
43449;SDS011;29041;42.266;23.110;2022-12-24T17:19:45;28.77;;;16.17;;
43449;SDS011;29041;42.266;23.110;2022-12-24T17:22:32;25.50;;;13.00;;
43449;SDS011;29041;42.266;23.110;2022-12-24T17:25:19;19.30;;;10.27;;
43449;SDS011;29041;42.266;23.110;2022-12-24T17:28:06;32.72;;;19.65;;